Terminal Aerodrome Forecast
Issued by NWS

Home | Current Version | Previous Version | Text Only | Print | Product List | Glossary On
Versions: 1 2 3 4 5 6 7 8 9 10 11
000
FTUS44 KLIX 271700 RRA
TAFGPT
TAF
KGPT 271740Z 2718/2818 09011KT 6SM -RA BR BKN009 OVC014
      TEMPO 2718/2722 1SM +SHRA BR BKN004
     FM280000 15009KT 1SM +SHRA BR OVC005
     FM280600 19005KT 3SM SHRA BR OVC003=

USA.gov is the U.S. government's official web portal to all federal, state and local government web resources and services.